createdAt,value
2024-01-05T00:01:28.197Z,3.60
2024-01-05T00:04:31.397Z,3.49
2024-01-05T00:07:34.113Z,3.46
2024-01-05T00:10:36.784Z,3.45
2024-01-05T00:13:39.483Z,3.41
2024-01-05T00:16:42.380Z,3.49
2024-01-05T00:19:45.359Z,3.76
2024-01-05T00:22:48.406Z,3.95
2024-01-05T00:25:51.038Z,4.16
2024-01-05T00:28:54.535Z,4.32
2024-01-05T00:31:57.311Z,4.52
2024-01-05T00:35:00.335Z,4.56
2024-01-05T00:38:03.087Z,4.59
2024-01-05T00:41:06.232Z,4.77
2024-01-05T00:44:08.643Z,4.90
2024-01-05T00:47:11.419Z,4.95
2024-01-05T00:50:13.898Z,5.00
2024-01-05T00:53:16.715Z,5.25
2024-01-05T00:56:19.173Z,5.29
2024-01-05T00:59:22.438Z,5.37
2024-01-05T01:02:25.144Z,5.35
2024-01-05T01:05:28.024Z,5.39
2024-01-05T01:08:30.479Z,5.43
2024-01-05T01:11:33.475Z,5.57
2024-01-05T01:14:36.213Z,5.65
2024-01-05T01:17:39.046Z,5.67
2024-01-05T01:20:41.480Z,5.66
2024-01-05T01:23:44.256Z,5.69
2024-01-05T01:26:46.969Z,5.63
2024-01-05T01:29:50.013Z,5.62
2024-01-05T01:32:52.851Z,5.58
2024-01-05T01:35:55.659Z,5.56
2024-01-05T01:38:58.117Z,5.47
2024-01-05T01:42:01.342Z,5.47
2024-01-05T01:45:04.371Z,5.43
2024-01-05T01:48:07.596Z,5.30
2024-01-05T01:51:10.824Z,5.18
2024-01-05T01:54:14.101Z,5.04
2024-01-05T01:57:19.077Z,4.84
2024-01-05T02:00:22.036Z,4.64
2024-01-05T02:03:25.380Z,4.44
2024-01-05T02:06:28.059Z,4.29
2024-01-05T02:09:31.783Z,4.19
2024-01-05T02:12:34.398Z,4.07
2024-01-05T02:15:37.245Z,3.97
2024-01-05T02:18:40.107Z,3.91
2024-01-05T02:21:48.480Z,3.80
2024-01-05T02:24:51.155Z,3.89
2024-01-05T02:27:54.145Z,3.99
2024-01-05T02:30:59.737Z,4.12
2024-01-05T02:34:03.150Z,4.32
2024-01-05T02:37:05.861Z,4.54
2024-01-05T02:40:09.814Z,4.83
2024-01-05T02:43:12.558Z,4.77
2024-01-05T02:46:15.244Z,4.91
2024-01-05T02:49:18.052Z,5.06
2024-01-05T02:52:21.069Z,5.14
2024-01-05T02:55:23.574Z,5.16
2024-01-05T02:58:26.247Z,5.08
2024-01-05T03:01:28.744Z,4.93
2024-01-05T03:04:31.817Z,4.78
2024-01-05T03:07:34.529Z,4.73
2024-01-05T03:10:37.258Z,4.62
2024-01-05T03:13:40.008Z,4.53
2024-01-05T03:16:43.238Z,4.46
2024-01-05T03:19:46.135Z,4.41
2024-01-05T03:22:49.070Z,4.34
2024-01-05T03:25:54.744Z,4.27
2024-01-05T03:29:00.051Z,4.07
2024-01-05T03:32:02.496Z,3.97
2024-01-05T03:35:05.619Z,3.93
2024-01-05T03:38:08.327Z,3.82
2024-01-05T03:41:11.764Z,3.80
2024-01-05T03:44:21.411Z,3.67
2024-01-05T03:47:24.342Z,3.53
2024-01-05T03:50:27.006Z,3.37
2024-01-05T03:53:30.451Z,3.27
2024-01-05T03:56:43.856Z,3.25
2024-01-05T03:59:46.955Z,3.22
2024-01-05T04:02:49.684Z,3.17
2024-01-05T04:05:52.713Z,3.16
2024-01-05T04:08:55.513Z,3.10
2024-01-05T04:11:59.048Z,3.14
2024-01-05T04:15:01.699Z,3.14
2024-01-05T04:18:05.657Z,3.12
2024-01-05T04:21:08.188Z,3.07
2024-01-05T04:24:12.109Z,3.01
2024-01-05T04:27:14.880Z,2.96
2024-01-05T04:30:18.058Z,2.95
2024-01-05T04:33:20.634Z,2.80
2024-01-05T04:36:23.456Z,2.86
2024-01-05T04:39:26.246Z,2.84
2024-01-05T04:42:29.846Z,2.82
2024-01-05T04:45:32.663Z,2.79
2024-01-05T04:48:35.983Z,2.79
2024-01-05T04:51:39.653Z,2.74
2024-01-05T04:54:43.782Z,2.61
2024-01-05T04:57:46.708Z,2.66
2024-01-05T05:00:49.980Z,2.67
2024-01-05T05:03:52.836Z,2.64
2024-01-05T05:06:55.719Z,2.61
2024-01-05T05:09:58.402Z,2.52
2024-01-05T05:13:01.368Z,2.45
2024-01-05T05:16:04.063Z,2.43
2024-01-05T05:19:06.937Z,2.37
2024-01-05T05:22:09.748Z,2.31
2024-01-05T05:25:12.813Z,2.28
2024-01-05T05:28:15.293Z,2.28
2024-01-05T05:31:18.326Z,2.21
2024-01-05T05:34:21.137Z,2.17
2024-01-05T05:37:24.005Z,2.13
2024-01-05T05:40:26.915Z,2.09
2024-01-05T05:43:29.835Z,2.07
2024-01-05T05:46:32.210Z,1.96
2024-01-05T05:49:35.080Z,1.89
2024-01-05T05:52:37.668Z,1.87
2024-01-05T05:55:40.665Z,1.78
2024-01-05T05:58:43.112Z,1.67
2024-01-05T06:01:46.805Z,1.58
2024-01-05T06:04:49.866Z,1.55
2024-01-05T06:07:52.532Z,1.50
2024-01-05T06:10:55.467Z,1.39
2024-01-05T06:13:58.410Z,1.37
2024-01-05T06:17:01.191Z,1.28
2024-01-05T06:20:04.658Z,1.28
2024-01-05T06:23:08.238Z,1.23
2024-01-05T06:26:10.923Z,1.24
2024-01-05T06:29:13.918Z,1.16
2024-01-05T06:32:16.624Z,1.18
2024-01-05T06:35:19.616Z,1.09
2024-01-05T06:38:22.337Z,1.15
2024-01-05T06:41:25.451Z,1.19
2024-01-05T06:44:27.884Z,1.25
2024-01-05T06:47:30.669Z,1.31
2024-01-05T06:50:36.280Z,1.41
2024-01-05T06:53:40.166Z,1.52
2024-01-05T06:56:43.861Z,1.55
2024-01-05T06:59:47.251Z,1.59
2024-01-05T07:02:50.018Z,1.78
2024-01-05T07:05:52.745Z,3.33
2024-01-05T07:08:55.433Z,4.93
2024-01-05T07:11:58.561Z,6.35
2024-01-05T07:15:02.067Z,6.39
2024-01-05T07:18:07.469Z,6.56
2024-01-05T07:21:10.443Z,6.52
2024-01-05T07:24:16.975Z,6.18
2024-01-05T07:27:19.530Z,5.81
2024-01-05T07:33:25.995Z,6.36
2024-01-05T07:36:29.506Z,7.53
2024-01-05T07:39:32.110Z,8.74
2024-01-05T07:42:35.081Z,9.82
2024-01-05T07:45:37.611Z,10.75
2024-01-05T07:48:42.172Z,11.06
2024-01-05T07:51:45.105Z,11.39
2024-01-05T07:54:48.202Z,11.79
2024-01-05T07:57:50.995Z,12.29
2024-01-05T08:00:56.648Z,11.29
2024-01-05T08:04:01.242Z,11.06
2024-01-05T08:07:05.136Z,11.52
2024-01-05T08:10:11.287Z,9.80
2024-01-05T08:13:14.060Z,9.06
2024-01-05T08:18:48.614Z,9.09
2024-01-05T08:21:55.671Z,9.96
2024-01-05T08:24:58.962Z,10.18
2024-01-05T08:28:03.652Z,12.27
2024-01-05T08:31:07.007Z,12.96
2024-01-05T08:34:10.420Z,13.37
2024-01-05T08:37:13.152Z,13.33
2024-01-05T08:40:16.182Z,14.10
2024-01-05T08:43:19.314Z,14.78
2024-01-05T08:46:22.320Z,15.46
2024-01-05T08:49:25.394Z,15.58
2024-01-05T08:52:28.440Z,14.26
2024-01-05T08:55:30.927Z,14.36
2024-01-05T08:58:33.666Z,15.02
2024-01-05T09:01:38.937Z,13.44
2024-01-05T09:04:43.075Z,11.98
2024-01-05T09:07:45.509Z,10.97
2024-01-05T09:10:48.641Z,11.97
2024-01-05T09:13:51.184Z,11.16
2024-01-05T09:16:54.197Z,11.32
2024-01-05T09:19:56.779Z,11.90
2024-01-05T09:23:01.238Z,11.73
2024-01-05T09:26:04.571Z,12.42
2024-01-05T09:29:07.875Z,12.57
2024-01-05T09:32:10.707Z,12.33
2024-01-05T09:35:13.940Z,11.51
2024-01-05T09:38:16.615Z,11.74
2024-01-05T09:41:19.398Z,11.58
2024-01-05T09:44:22.630Z,10.90
2024-01-05T09:47:25.633Z,11.48
2024-01-05T09:50:28.514Z,11.63
2024-01-05T09:53:31.357Z,12.20
2024-01-05T09:56:34.272Z,12.57
2024-01-05T09:59:40.040Z,11.81
2024-01-05T10:02:51.890Z,11.63
2024-01-05T10:05:55.315Z,11.56
2024-01-05T10:09:01.277Z,11.07
2024-01-05T10:12:13.443Z,10.90
2024-01-05T10:15:16.280Z,12.04
2024-01-05T10:18:23.039Z,11.75
2024-01-05T10:21:27.804Z,11.42
2024-01-05T10:24:31.545Z,11.52
2024-01-05T10:27:34.352Z,11.04
2024-01-05T10:30:37.376Z,10.80
2024-01-05T10:33:53.084Z,10.41
2024-01-05T10:37:06.161Z,10.62
2024-01-05T10:40:17.833Z,10.17
2024-01-05T10:43:23.874Z,10.10
2024-01-05T10:46:27.354Z,9.68
2024-01-05T10:49:31.890Z,9.50
2024-01-05T10:52:35.059Z,9.81
2024-01-05T10:55:39.521Z,9.84
2024-01-05T10:58:43.681Z,9.89
2024-01-05T11:01:48.841Z,9.97
2024-01-05T11:05:12.858Z,9.89
2024-01-05T11:08:41.315Z,9.84
2024-01-05T11:12:07.062Z,9.62
2024-01-05T11:15:19.562Z,9.51
2024-01-05T11:18:37.758Z,9.46
2024-01-05T11:21:55.915Z,9.61
2024-01-05T11:24:59.421Z,9.84
2024-01-05T11:28:03.356Z,9.82
2024-01-05T11:31:06.425Z,9.77
2024-01-05T11:34:09.839Z,9.79
2024-01-05T11:37:12.619Z,9.79
2024-01-05T11:40:34.164Z,9.83
2024-01-05T11:43:39.059Z,9.96
2024-01-05T11:46:52.737Z,9.81
2024-01-05T11:49:55.520Z,9.92
2024-01-05T11:53:20.629Z,9.81
2024-01-05T11:56:26.421Z,9.68
2024-01-05T11:59:29.468Z,9.64
2024-01-05T12:02:31.905Z,9.54
2024-01-05T12:05:34.766Z,9.42
2024-01-05T12:08:37.742Z,9.44
2024-01-05T12:11:40.408Z,9.62
2024-01-05T12:14:42.920Z,9.42
2024-01-05T12:17:45.911Z,9.46
2024-01-05T12:20:53.935Z,9.33
2024-01-05T12:23:57.818Z,9.24
2024-01-05T12:27:00.916Z,9.05
2024-01-05T12:30:06.217Z,9.13
2024-01-05T12:33:09.715Z,9.01
2024-01-05T12:36:24.340Z,8.97
2024-01-05T12:39:26.921Z,8.78
2024-01-05T12:42:29.896Z,8.62
2024-01-05T12:45:32.377Z,8.54
2024-01-05T12:48:35.384Z,8.55
2024-01-05T12:51:48.103Z,8.49
2024-01-05T12:54:51.094Z,8.46
2024-01-05T12:57:53.941Z,8.48
2024-01-05T13:01:00.386Z,8.38
2024-01-05T13:04:04.348Z,8.43
2024-01-05T13:07:09.828Z,8.39
2024-01-05T13:10:12.973Z,8.42
2024-01-05T13:13:15.927Z,8.47
2024-01-05T13:16:19.106Z,8.52
2024-01-05T13:19:22.220Z,8.45
2024-01-05T13:22:25.054Z,8.53
2024-01-05T13:25:28.098Z,8.54
2024-01-05T13:28:36.672Z,8.57
2024-01-05T13:31:40.066Z,8.56
2024-01-05T13:34:42.713Z,8.53
2024-01-05T13:37:45.633Z,8.46
2024-01-05T13:40:48.104Z,8.46
2024-01-05T13:43:51.276Z,8.40
2024-01-05T13:46:54.010Z,8.26
2024-01-05T13:49:56.848Z,8.33
2024-01-05T13:53:00.299Z,8.21
2024-01-05T13:56:03.706Z,8.15
2024-01-05T13:59:06.154Z,8.21
2024-01-05T14:02:08.999Z,8.14
2024-01-05T14:05:11.807Z,8.10
2024-01-05T14:08:16.670Z,8.07
2024-01-05T14:11:19.433Z,8.03
2024-01-05T14:14:22.206Z,7.97
2024-01-05T14:17:25.230Z,7.93
2024-01-05T14:20:27.951Z,7.88
2024-01-05T14:23:30.978Z,7.83
2024-01-05T14:26:34.104Z,7.76
2024-01-05T14:29:37.144Z,7.71
2024-01-05T14:32:40.597Z,7.66
2024-01-05T14:35:44.049Z,7.66
2024-01-05T14:38:47.054Z,7.57
2024-01-05T14:41:50.083Z,7.53
2024-01-05T14:44:53.772Z,7.48
2024-01-05T14:47:57.732Z,7.42
2024-01-05T14:51:01.313Z,7.35
2024-01-05T14:54:04.715Z,7.26
2024-01-05T14:57:07.605Z,7.16
2024-01-05T15:00:11.495Z,7.22
2024-01-05T15:03:13.999Z,7.15
2024-01-05T15:06:24.930Z,7.11
2024-01-05T15:09:28.313Z,7.07
2024-01-05T15:12:31.377Z,7.05
2024-01-05T15:15:34.352Z,7.02
2024-01-05T15:18:37.260Z,6.96
2024-01-05T15:21:40.721Z,6.92
2024-01-05T15:24:46.563Z,6.87
2024-01-05T15:27:51.501Z,6.78
2024-01-05T15:30:56.041Z,6.83
2024-01-05T15:33:58.739Z,6.80
2024-01-05T15:37:01.733Z,6.79
2024-01-05T15:40:05.080Z,6.79
2024-01-05T15:43:08.107Z,6.78
2024-01-05T15:46:11.659Z,6.76
2024-01-05T15:49:14.882Z,6.73
2024-01-05T15:52:17.707Z,6.70
2024-01-05T15:55:23.219Z,6.70
2024-01-05T15:58:26.044Z,6.68
2024-01-05T16:01:29.006Z,6.71
2024-01-05T16:04:34.576Z,6.79
2024-01-05T16:07:37.323Z,6.83
2024-01-05T16:10:40.200Z,6.78
2024-01-05T16:13:43.516Z,6.83
2024-01-05T16:16:47.110Z,6.81
2024-01-05T16:19:50.116Z,6.78
2024-01-05T16:22:53.428Z,6.78
2024-01-05T16:25:56.202Z,6.76
2024-01-05T16:28:59.185Z,6.73
2024-01-05T16:32:01.844Z,6.73
2024-01-05T16:35:05.803Z,6.70
2024-01-05T16:38:10.186Z,6.68
2024-01-05T16:41:16.588Z,6.73
2024-01-05T16:44:19.042Z,6.74
2024-01-05T16:47:22.503Z,6.74
2024-01-05T16:50:26.197Z,6.76
2024-01-05T16:53:34.425Z,6.78
2024-01-05T16:56:45.910Z,6.81
2024-01-05T16:59:51.883Z,6.88
2024-01-05T17:02:55.174Z,6.92
2024-01-05T17:05:57.955Z,6.86
2024-01-05T17:09:00.527Z,6.71
2024-01-05T17:12:06.650Z,6.78
2024-01-05T17:15:10.074Z,6.70
2024-01-05T17:18:13.233Z,6.67
2024-01-05T17:21:15.942Z,6.67
2024-01-05T17:24:19.524Z,6.63
2024-01-05T17:27:22.328Z,6.57
2024-01-05T17:30:25.973Z,6.52
2024-01-05T17:33:28.802Z,6.47
2024-01-05T17:36:31.863Z,6.35
2024-01-05T17:39:35.845Z,6.21
2024-01-05T17:42:39.846Z,6.18
2024-01-05T17:45:43.433Z,6.13
2024-01-05T17:48:47.286Z,6.28
2024-01-05T17:51:50.994Z,6.25
2024-01-05T17:54:54.445Z,6.31
2024-01-05T17:57:58.001Z,6.40
2024-01-05T18:01:05.893Z,6.48
2024-01-05T18:04:15.957Z,6.43
2024-01-05T18:07:19.710Z,6.66
2024-01-05T18:10:23.940Z,6.61
2024-01-05T18:13:27.382Z,6.57
2024-01-05T18:16:37.094Z,6.54
2024-01-05T18:19:42.303Z,6.49
2024-01-05T18:22:47.368Z,6.45
2024-01-05T18:25:50.971Z,6.40
2024-01-05T18:28:55.325Z,6.38
2024-01-05T18:31:59.803Z,6.32
2024-01-05T18:35:03.713Z,6.25
2024-01-05T18:38:07.363Z,6.19
2024-01-05T18:41:21.203Z,6.18
2024-01-05T18:44:24.870Z,6.16
2024-01-05T18:47:28.912Z,6.07
2024-01-05T18:50:31.453Z,6.15
2024-01-05T18:53:34.471Z,6.18
2024-01-05T18:56:37.138Z,6.23
2024-01-05T18:59:40.010Z,6.23
2024-01-05T19:02:42.591Z,6.19
2024-01-05T19:05:45.945Z,6.24
2024-01-05T19:08:48.881Z,6.22
2024-01-05T19:11:52.725Z,6.23
2024-01-05T19:14:55.811Z,6.24
2024-01-05T19:17:58.801Z,6.27
2024-01-05T19:21:05.428Z,6.27
2024-01-05T19:24:10.152Z,6.23
2024-01-05T19:27:12.986Z,6.20
2024-01-05T19:30:16.288Z,6.19
2024-01-05T19:33:19.299Z,6.17
2024-01-05T19:36:22.609Z,6.11
2024-01-05T19:39:26.012Z,6.02
2024-01-05T19:42:28.880Z,5.97
2024-01-05T19:45:31.678Z,5.92
2024-01-05T19:48:38.320Z,5.86
2024-01-05T19:51:48.320Z,5.77
2024-01-05T19:54:55.333Z,5.72
2024-01-05T19:57:58.146Z,5.67
2024-01-05T20:01:04.063Z,5.62
2024-01-05T20:04:07.454Z,5.65
2024-01-05T20:07:10.055Z,5.66
2024-01-05T20:10:14.030Z,5.64
2024-01-05T20:13:19.022Z,5.69
2024-01-05T20:16:22.291Z,5.66
2024-01-05T20:19:25.178Z,5.57
2024-01-05T20:22:27.925Z,5.54
2024-01-05T20:25:31.331Z,5.47
2024-01-05T20:28:34.420Z,5.38
2024-01-05T20:31:37.312Z,5.31
2024-01-05T20:34:40.592Z,5.24
2024-01-05T20:37:43.750Z,5.17
2024-01-05T20:40:47.373Z,5.12
2024-01-05T20:43:50.100Z,5.09
2024-01-05T20:46:53.147Z,5.09
2024-01-05T20:49:56.299Z,5.09
2024-01-05T20:53:11.066Z,5.07
2024-01-05T20:56:15.396Z,5.09
2024-01-05T20:59:18.380Z,5.13
2024-01-05T21:02:20.858Z,5.14
2024-01-05T21:05:23.965Z,5.15
2024-01-05T21:08:28.669Z,5.15
2024-01-05T21:11:31.484Z,5.15
2024-01-05T21:14:37.161Z,5.13
2024-01-05T21:17:40.298Z,5.13
2024-01-05T21:20:43.646Z,5.15
2024-01-05T21:23:46.650Z,5.17
2024-01-05T21:26:49.159Z,5.21
2024-01-05T21:29:52.129Z,5.17
2024-01-05T21:32:54.933Z,5.18
2024-01-05T21:35:57.911Z,5.22
2024-01-05T21:39:00.667Z,5.21
2024-01-05T21:42:04.582Z,5.23
2024-01-05T21:45:08.148Z,5.22
2024-01-05T21:48:11.106Z,5.23
2024-01-05T21:51:15.130Z,5.22
2024-01-05T21:54:18.359Z,5.18
2024-01-05T21:57:21.108Z,5.19
2024-01-05T22:00:23.948Z,5.18
2024-01-05T22:03:27.045Z,5.16
2024-01-05T22:06:30.540Z,5.17
2024-01-05T22:09:33.629Z,5.13
2024-01-05T22:12:36.292Z,5.10
2024-01-05T22:15:39.224Z,5.05
2024-01-05T22:18:41.876Z,5.03
2024-01-05T22:21:44.771Z,5.05
2024-01-05T22:24:47.835Z,5.05
2024-01-05T22:27:51.311Z,5.04
2024-01-05T22:30:54.145Z,5.02
2024-01-05T22:33:57.442Z,4.96
2024-01-05T22:37:07.129Z,4.90
2024-01-05T22:40:10.175Z,4.91
2024-01-05T22:43:12.583Z,4.93
2024-01-05T22:46:17.426Z,4.90
2024-01-05T22:49:20.322Z,4.91
2024-01-05T22:52:23.449Z,4.91
2024-01-05T22:55:26.055Z,4.90
2024-01-05T22:58:28.764Z,4.90
2024-01-05T23:01:31.323Z,4.91
2024-01-05T23:04:34.504Z,4.92
2024-01-05T23:07:37.438Z,4.91
2024-01-05T23:10:40.411Z,4.76
2024-01-05T23:13:42.980Z,4.88
2024-01-05T23:16:48.279Z,4.90
2024-01-05T23:19:51.491Z,4.89
2024-01-05T23:22:54.527Z,4.89
2024-01-05T23:25:57.230Z,4.91
2024-01-05T23:29:00.190Z,4.93
2024-01-05T23:32:03.967Z,4.88
2024-01-05T23:35:07.347Z,4.89
2024-01-05T23:38:10.063Z,4.84
2024-01-05T23:41:14.138Z,4.83
2024-01-05T23:44:16.880Z,4.80
2024-01-05T23:47:19.980Z,4.73
2024-01-05T23:50:22.735Z,4.63
2024-01-05T23:53:25.427Z,4.52
2024-01-05T23:56:28.120Z,4.44
2024-01-05T23:59:30.860Z,4.46
